If you wish to contribute or participate in the discussions about articles you are invited to join SKYbrary as a registered user

 Actions

Four Corners Regional Airport

From SKYbrary Wiki

KFMN
Airport
ICAO: KFMN
Summary
Name Four Corners Regional Airport
Region North America
Territory United States US.gif
Location Farmington, New Mexico
Serving
Coordinates 36° 44' 28.00" N, 108° 13' 47.00" W
Runways
Designator Length Width Surface ROPS
5/23 1981 m6,499.344 ft
46 m150.919 ft
ASP yes/yes
7/25 2043 m6,702.756 ft
30 m98.425 ft
ASP yes/yes


METAR
Observation KFMN 130753Z AUTO 02004KT 10SM CLR 00/M16 A3010 RMK AO2 SLP179 T00001161
Station Farmington, Four Corners Regional Airport
Date/Time 13 October 2019 07:53:00
Wind direction 20°
Wind speed 04 kts
Lowest cloud amount n/a
Temperature 0°C
Dew point
Humidity 28%
QNH hPa
Weather condition n/a

RE
Tag(s) Hot and High Operations

Four Corners Regional Airport

ICAO: KFMN IATA: FMN

Description

Four Corners Regional Airport is a public airport located 2 km1.08 nm
2,000 m
6,561.68 ft
northwest of the central business district of Farmington, a city in San Juan County, New Mexico.

Climatology

A semi-arid steppe climate (Köppen climate classification BSk), with generally cold, dry winters and hot summers. Late spring and early summer is on average the wettest period of the year.

Maps

Terrain

Loading map...

Airport Layout

Loading map...


Accidents & Serious Incidents at or in vicinity of KFMN

None on SKYbrary